createdAt,value
2018-06-10T00:01:43.126Z,9.35
2018-06-10T00:04:11.506Z,9.20
2018-06-10T00:06:39.997Z,8.77
2018-06-10T00:09:08.281Z,8.68
2018-06-10T00:11:36.723Z,10.00
2018-06-10T00:14:06.011Z,9.03
2018-06-10T00:16:33.903Z,11.30
2018-06-10T00:19:01.997Z,11.80
2018-06-10T00:21:30.305Z,12.13
2018-06-10T00:24:00.065Z,11.43
2018-06-10T00:26:28.622Z,10.58
2018-06-10T00:29:10.264Z,9.95
2018-06-10T00:57:36.201Z,8.93
2018-06-10T01:00:04.639Z,9.60
2018-06-10T01:02:33.090Z,9.33
2018-06-10T01:05:01.450Z,8.10
2018-06-10T01:07:41.986Z,9.65
2018-06-10T01:10:10.301Z,9.80
2018-06-10T01:12:38.709Z,10.65
2018-06-10T01:15:07.247Z,12.43
2018-06-10T01:17:35.519Z,10.70
2018-06-10T01:20:03.840Z,9.65
2018-06-10T01:22:32.605Z,10.70
2018-06-10T01:25:01.720Z,9.85
2018-06-10T01:27:36.666Z,10.23
2018-06-10T01:31:11.852Z,9.40
2018-06-10T01:33:47.738Z,9.15
2018-06-10T02:08:02.623Z,8.25
2018-06-10T03:26:09.461Z,10.18
2018-06-10T03:28:42.019Z,10.87
2018-06-10T03:31:26.647Z,11.00
2018-06-10T03:33:54.861Z,10.20
2018-06-10T03:36:23.053Z,10.78
2018-06-10T03:38:51.378Z,11.40
2018-06-10T03:41:19.796Z,11.20
2018-06-10T03:43:48.176Z,11.12
2018-06-10T03:46:16.510Z,11.30
2018-06-10T03:48:44.777Z,11.60
2018-06-10T03:51:12.868Z,11.18
2018-06-10T03:53:41.081Z,11.63
2018-06-10T03:56:09.463Z,11.78
2018-06-10T03:58:37.776Z,10.85
2018-06-10T04:01:05.874Z,11.83
2018-06-10T04:03:34.165Z,12.70
2018-06-10T04:06:02.457Z,11.90
2018-06-10T04:08:30.549Z,11.28
2018-06-10T04:10:59.068Z,11.50
2018-06-10T04:13:27.525Z,11.03
2018-06-10T04:15:56.413Z,11.40
2018-06-10T04:18:25.278Z,10.20
2018-06-10T04:20:54.368Z,10.48
2018-06-10T04:23:22.795Z,10.75
2018-06-10T04:25:50.858Z,10.37
2018-06-10T04:28:19.288Z,11.50
2018-06-10T04:30:47.859Z,11.83
2018-06-10T04:33:21.764Z,11.38
2018-06-10T04:35:50.214Z,11.70
2018-06-10T04:38:18.512Z,11.50
2018-06-10T04:40:46.910Z,10.45
2018-06-10T04:43:14.891Z,9.98
2018-06-10T04:45:42.983Z,9.70
2018-06-10T04:48:11.366Z,9.27
2018-06-10T04:50:39.888Z,10.93
2018-06-10T04:53:07.775Z,9.30
2018-06-10T04:55:35.877Z,8.73
2018-06-10T04:58:04.240Z,9.23
2018-06-10T05:00:32.559Z,9.20
2018-06-10T05:03:00.859Z,9.77
2018-06-10T05:05:28.828Z,8.80
2018-06-10T05:07:57.263Z,9.30
2018-06-10T05:10:28.583Z,9.10
2018-06-10T05:12:56.894Z,9.63
2018-06-10T05:15:25.242Z,10.60
2018-06-10T05:17:53.614Z,9.20
2018-06-10T05:20:21.821Z,9.90
2018-06-10T05:22:50.114Z,8.90
2018-06-10T05:25:18.366Z,9.23
2018-06-10T05:27:46.814Z,9.57
2018-06-10T05:30:15.314Z,8.50
2018-06-10T05:32:43.694Z,8.90
2018-06-10T05:35:11.770Z,9.90
2018-06-10T05:37:40.097Z,8.77
2018-06-10T05:40:08.235Z,8.80
2018-06-10T05:42:36.502Z,8.60
2018-06-10T05:45:04.952Z,9.10
2018-06-10T05:47:33.168Z,9.00
2018-06-10T05:50:01.583Z,8.77
2018-06-10T05:52:29.787Z,8.60
2018-06-10T05:54:58.083Z,8.87
2018-06-10T05:57:26.583Z,8.77
2018-06-10T05:59:54.984Z,8.30
2018-06-10T06:02:22.933Z,9.27
2018-06-10T06:04:51.169Z,8.10
2018-06-10T06:07:20.033Z,8.03
2018-06-10T06:09:48.392Z,8.73
2018-06-10T06:12:16.675Z,8.37
2018-06-10T06:14:46.092Z,8.40
2018-06-10T06:17:14.251Z,7.40
2018-06-10T06:19:42.493Z,8.30
2018-06-10T06:22:11.626Z,8.60
2018-06-10T06:24:40.742Z,8.77
2018-06-10T06:27:11.505Z,9.23
2018-06-10T06:29:40.066Z,8.43
2018-06-10T06:32:08.326Z,8.47
2018-06-10T06:34:37.892Z,9.20
2018-06-10T06:37:07.545Z,8.83
2018-06-10T06:39:36.024Z,8.80
2018-06-10T06:42:04.305Z,8.20
2018-06-10T06:44:32.519Z,8.50
2018-06-10T06:47:00.873Z,9.65
2018-06-10T06:49:29.097Z,8.90
2018-06-10T06:51:57.309Z,9.27
2018-06-10T06:54:26.089Z,8.60
2018-06-10T06:56:54.407Z,9.03
2018-06-10T06:59:22.486Z,8.63
2018-06-10T07:01:51.545Z,8.40
2018-06-10T07:04:20.199Z,7.80
2018-06-10T07:06:49.438Z,8.50
2018-06-10T07:09:17.941Z,8.70
2018-06-10T07:11:46.790Z,9.20
2018-06-10T07:14:14.936Z,7.40
2018-06-10T07:16:43.044Z,9.30
2018-06-10T07:19:11.198Z,9.50
2018-06-10T07:21:39.508Z,9.70
2018-06-10T07:24:09.453Z,9.93
2018-06-10T07:26:38.293Z,9.20
2018-06-10T07:29:07.281Z,7.87
2018-06-10T07:31:35.376Z,8.73
2018-06-10T07:34:03.497Z,7.27
2018-06-10T07:36:32.436Z,7.37
2018-06-10T07:39:00.766Z,7.03
2018-06-10T07:41:29.291Z,6.83
2018-06-10T07:43:57.586Z,7.40
2018-06-10T07:46:27.563Z,6.60
2018-06-10T07:48:55.922Z,5.90
2018-06-10T07:51:24.710Z,5.80
2018-06-10T07:53:52.905Z,5.50
2018-06-10T07:56:21.212Z,5.70
2018-06-10T07:58:49.695Z,5.93
2018-06-10T08:01:18.017Z,6.00
2018-06-10T08:03:45.992Z,5.03
2018-06-10T08:06:14.418Z,5.40
2018-06-10T08:08:42.831Z,5.63
2018-06-10T08:11:12.344Z,5.73
2018-06-10T08:16:13.758Z,5.58
2018-06-10T08:18:41.919Z,5.23
2018-06-10T08:21:10.133Z,5.27
2018-06-10T08:23:38.528Z,5.30
2018-06-10T08:26:07.034Z,5.10
2018-06-10T08:28:35.445Z,4.93
2018-06-10T08:31:03.798Z,5.80
2018-06-10T08:33:32.193Z,7.08
2018-06-10T08:36:00.594Z,5.90
2018-06-10T08:38:28.922Z,5.85
2018-06-10T08:40:57.126Z,5.90
2018-06-10T08:43:25.423Z,6.50
2018-06-10T08:45:53.690Z,6.40
2018-06-10T08:48:22.152Z,6.40
2018-06-10T08:50:51.335Z,6.65
2018-06-10T08:53:19.616Z,7.08
2018-06-10T08:55:47.447Z,6.97
2018-06-10T08:58:16.319Z,7.00
2018-06-10T09:00:45.234Z,6.72
2018-06-10T09:03:13.491Z,8.15
2018-06-10T09:05:41.812Z,7.70
2018-06-10T09:08:10.260Z,7.33
2018-06-10T09:10:38.508Z,6.70
2018-06-10T09:13:06.926Z,7.15
2018-06-10T09:15:34.896Z,7.20
2018-06-10T09:18:03.346Z,7.10
2018-06-10T09:20:31.575Z,7.80
2018-06-10T09:23:00.019Z,8.05
2018-06-10T09:25:28.662Z,8.60
2018-06-10T09:27:57.000Z,8.70
2018-06-10T09:30:25.441Z,8.60
2018-06-10T09:32:53.766Z,8.73
2018-06-10T09:35:22.241Z,8.70
2018-06-10T09:37:50.594Z,8.50
2018-06-10T09:40:18.927Z,7.90
2018-06-10T09:42:47.363Z,8.33
2018-06-10T09:45:15.924Z,7.83
2018-06-10T09:47:44.535Z,8.40
2018-06-10T09:50:13.150Z,12.43
2018-06-10T09:52:41.427Z,10.07
2018-06-10T09:55:10.619Z,8.65
2018-06-10T09:57:39.334Z,8.98
2018-06-10T10:00:07.701Z,8.30
2018-06-10T10:02:36.045Z,9.20
2018-06-10T10:05:04.535Z,8.75
2018-06-10T10:07:32.748Z,9.00
2018-06-10T10:10:01.229Z,9.60
2018-06-10T10:12:29.852Z,9.13
2018-06-10T10:14:58.272Z,9.88
2018-06-10T10:17:26.662Z,9.25
2018-06-10T10:19:54.926Z,9.83
2018-06-10T10:22:23.324Z,9.70
2018-06-10T10:24:51.638Z,9.30
2018-06-10T10:27:20.052Z,8.80
2018-06-10T10:29:48.332Z,8.90
2018-06-10T10:32:17.256Z,9.08
2018-06-10T10:34:46.181Z,9.38
2018-06-10T10:37:14.679Z,9.50
2018-06-10T10:39:43.082Z,10.00
2018-06-10T10:42:11.307Z,9.73
2018-06-10T10:44:40.008Z,9.38
2018-06-10T10:47:08.481Z,9.58
2018-06-10T10:49:36.972Z,9.00
2018-06-10T11:02:20.450Z,9.20
2018-06-10T11:04:48.991Z,10.38
2018-06-10T11:07:17.343Z,10.65
2018-06-10T11:09:45.649Z,10.43
2018-06-10T11:12:18.136Z,10.65
2018-06-10T11:14:50.056Z,10.60
2018-06-10T11:17:25.226Z,10.27
2018-06-10T11:19:53.673Z,9.90
2018-06-10T11:22:22.056Z,9.90
2018-06-10T11:24:50.503Z,9.90
2018-06-10T11:27:18.949Z,10.03
2018-06-10T11:29:47.336Z,10.30
2018-06-10T11:32:16.585Z,10.18
2018-06-10T11:34:45.092Z,10.40
2018-06-10T11:37:13.483Z,10.72
2018-06-10T11:39:42.811Z,9.90
2018-06-10T11:42:11.277Z,11.22
2018-06-10T11:44:40.328Z,11.08
2018-06-10T11:47:08.523Z,11.47
2018-06-10T11:50:10.264Z,10.45
2018-06-10T11:52:38.763Z,11.95
2018-06-10T11:55:06.958Z,11.20
2018-06-10T11:57:35.588Z,11.60
2018-06-10T12:00:04.251Z,11.40
2018-06-10T12:02:32.630Z,12.10
2018-06-10T12:05:00.985Z,12.50
2018-06-10T12:07:31.470Z,12.70
2018-06-10T12:09:59.711Z,12.30
2018-06-10T12:12:28.103Z,12.20
2018-06-10T12:14:56.395Z,11.68
2018-06-10T12:17:24.701Z,12.50
2018-06-10T12:19:53.607Z,12.40
2018-06-10T12:22:22.018Z,11.80
2018-06-10T12:24:50.289Z,12.20
2018-06-10T12:27:18.695Z,12.50
2018-06-10T12:29:47.445Z,11.78
2018-06-10T12:32:15.817Z,11.83
2018-06-10T12:34:44.216Z,12.05
2018-06-10T12:37:13.247Z,12.60
2018-06-10T12:39:42.125Z,12.47
2018-06-10T12:42:11.168Z,12.20
2018-06-10T12:44:39.827Z,12.93
2018-06-10T12:47:08.154Z,13.05
2018-06-10T12:49:37.028Z,13.30
2018-06-10T12:52:06.048Z,12.87
2018-06-10T12:54:34.582Z,13.30
2018-06-10T12:57:02.646Z,11.93
2018-06-10T12:59:31.976Z,12.47
2018-06-10T13:02:00.815Z,12.33
2018-06-10T13:04:29.715Z,11.70
2018-06-10T13:06:58.200Z,12.20
2018-06-10T13:09:26.590Z,12.15
2018-06-10T13:11:54.891Z,13.10
2018-06-10T13:14:28.554Z,12.90
2018-06-10T13:16:56.799Z,12.90
2018-06-10T13:35:46.404Z,7.97
2018-06-10T13:38:14.518Z,7.85
2018-06-10T13:40:42.732Z,8.08
2018-06-10T13:43:11.001Z,8.35
2018-06-10T13:45:40.263Z,8.60
2018-06-10T13:48:08.651Z,8.70
2018-06-10T13:50:37.270Z,8.20
2018-06-10T13:53:05.988Z,8.35
2018-06-10T13:55:34.980Z,8.60
2018-06-10T13:58:03.623Z,8.83
2018-06-10T14:00:31.931Z,8.30
2018-06-10T14:03:00.415Z,9.83
2018-06-10T14:05:29.574Z,9.20
2018-06-10T14:07:57.977Z,8.90
2018-06-10T14:10:26.264Z,10.10
2018-06-10T14:12:54.478Z,8.35
2018-06-10T14:15:24.109Z,8.85
2018-06-10T14:17:53.015Z,8.10
2018-06-10T14:20:21.610Z,8.20
2018-06-10T14:22:49.840Z,8.43
2018-06-10T14:25:18.136Z,7.60
2018-06-10T14:27:46.458Z,9.30
2018-06-10T14:30:15.015Z,9.00
2018-06-10T14:32:42.989Z,7.50
2018-06-10T14:35:11.316Z,6.87
2018-06-10T14:37:39.712Z,6.35
2018-06-10T14:40:08.437Z,6.57
2018-06-10T14:42:36.811Z,6.50
2018-06-10T14:45:05.009Z,6.50
2018-06-10T14:47:32.913Z,7.10
2018-06-10T14:50:01.199Z,7.00
2018-06-10T14:52:29.587Z,7.00
2018-06-10T14:54:58.047Z,7.33
2018-06-10T14:57:26.498Z,7.05
2018-06-10T14:59:55.730Z,7.60
2018-06-10T15:02:24.510Z,7.10
2018-06-10T15:04:52.830Z,7.62
2018-06-10T15:07:21.740Z,7.53
2018-06-10T15:09:50.120Z,7.55
2018-06-10T15:12:18.412Z,7.87
2018-06-10T15:14:47.032Z,7.80
2018-06-10T15:17:15.434Z,7.40
2018-06-10T15:19:43.927Z,7.87
2018-06-10T15:22:13.042Z,7.50
2018-06-10T15:24:41.246Z,7.85
2018-06-10T15:27:09.748Z,7.37
2018-06-10T15:29:38.182Z,7.90
2018-06-10T15:32:07.265Z,8.30
2018-06-10T15:34:35.871Z,7.87
2018-06-10T15:37:04.234Z,7.75
2018-06-10T15:39:32.673Z,7.85
2018-06-10T15:42:00.973Z,8.00
2018-06-10T15:44:29.365Z,8.00
2018-06-10T15:46:57.769Z,8.70
2018-06-10T15:49:26.143Z,8.30
2018-06-10T15:51:54.479Z,7.87
2018-06-10T15:54:22.753Z,8.10
2018-06-10T15:56:50.853Z,8.50
2018-06-10T15:59:19.102Z,9.50
2018-06-10T16:01:47.345Z,9.48
2018-06-10T16:04:15.782Z,9.50
2018-06-10T16:06:44.043Z,9.50
2018-06-10T16:09:12.448Z,9.63
2018-06-10T16:11:40.816Z,10.75
2018-06-10T16:14:09.138Z,9.80
2018-06-10T16:16:37.440Z,10.40
2018-06-10T16:19:05.757Z,10.53
2018-06-10T16:21:34.167Z,9.85
2018-06-10T16:24:02.530Z,10.50
2018-06-10T16:26:30.927Z,10.25
2018-06-10T16:28:59.130Z,10.08
2018-06-10T16:31:27.412Z,11.18
2018-06-10T16:33:55.721Z,10.45
2018-06-10T16:36:23.953Z,10.15
2018-06-10T16:38:52.451Z,10.53
2018-06-10T16:41:21.133Z,10.70
2018-06-10T16:43:49.835Z,10.50
2018-06-10T16:46:18.371Z,10.40
2018-06-10T16:48:46.893Z,9.70
2018-06-10T16:51:15.338Z,10.30
2018-06-10T16:53:43.771Z,9.85
2018-06-10T16:56:12.146Z,10.18
2018-06-10T16:58:40.725Z,9.78
2018-06-10T17:01:09.172Z,9.50
2018-06-10T17:03:37.541Z,9.55
2018-06-10T17:06:05.840Z,9.65
2018-06-10T17:08:34.397Z,9.85
2018-06-10T17:11:02.653Z,9.80
2018-06-10T17:13:30.938Z,10.30
2018-06-10T17:15:59.400Z,10.32
2018-06-10T17:18:27.542Z,10.67
2018-06-10T17:20:56.199Z,10.05
2018-06-10T17:23:24.996Z,11.95
2018-06-10T17:25:53.462Z,12.00
2018-06-10T17:28:21.983Z,11.12
2018-06-10T17:30:51.567Z,11.03
2018-06-10T17:33:19.996Z,10.38
2018-06-10T17:35:48.393Z,6.30
2018-06-10T17:38:17.247Z,4.90
2018-06-10T17:40:46.619Z,4.20
2018-06-10T17:43:14.900Z,4.70
2018-06-10T17:45:43.355Z,4.78
2018-06-10T17:48:14.361Z,6.50
2018-06-10T17:50:43.860Z,8.00
2018-06-10T17:53:12.430Z,8.08
2018-06-10T17:55:42.126Z,7.15
2018-06-10T17:58:11.462Z,6.30
2018-06-10T18:00:41.328Z,7.17
2018-06-10T18:03:09.709Z,7.80
2018-06-10T18:05:43.384Z,7.28
2018-06-10T18:08:13.656Z,7.17
2018-06-10T18:10:43.143Z,7.50
2018-06-10T18:13:12.103Z,6.80
2018-06-10T18:15:41.154Z,6.87
2018-06-10T18:18:10.906Z,5.55
2018-06-10T18:20:40.443Z,5.42
2018-06-10T18:23:09.781Z,5.33
2018-06-10T18:25:38.227Z,5.72
2018-06-10T18:28:07.917Z,6.10
2018-06-10T18:30:38.919Z,6.33
2018-06-10T18:33:10.508Z,6.28
2018-06-10T18:35:41.581Z,7.00
2018-06-10T18:38:19.082Z,6.78
2018-06-10T18:40:49.058Z,6.87
2018-06-10T18:43:19.593Z,6.87
2018-06-10T18:45:49.060Z,7.03
2018-06-10T18:48:17.880Z,7.30
2018-06-10T18:50:46.678Z,8.20
2018-06-10T18:53:14.936Z,7.87
2018-06-10T18:55:45.460Z,8.20
2018-06-10T18:58:15.125Z,8.23
2018-06-10T19:00:46.631Z,7.53
2018-06-10T19:03:15.736Z,8.00
2018-06-10T19:05:45.509Z,8.50
2018-06-10T19:08:15.104Z,8.03
2018-06-10T19:10:44.772Z,8.70
2018-06-10T19:13:13.986Z,8.23
2018-06-10T19:15:43.232Z,8.50
2018-06-10T19:18:12.484Z,7.30
2018-06-10T19:20:41.499Z,8.10
2018-06-10T19:23:10.221Z,7.60
2018-06-10T19:25:40.103Z,7.10
2018-06-10T19:28:09.769Z,7.40
2018-06-10T19:30:39.479Z,8.03
2018-06-10T19:33:07.715Z,8.23
2018-06-10T19:35:38.250Z,8.03
2018-06-10T19:38:09.140Z,8.57
2018-06-10T19:40:39.415Z,10.10
2018-06-10T19:43:09.056Z,10.00
2018-06-10T19:45:38.510Z,9.80
2018-06-10T19:48:08.379Z,8.93
2018-06-10T19:50:36.921Z,9.10
2018-06-10T19:53:05.752Z,8.10
2018-06-10T19:55:35.268Z,8.53
2018-06-10T19:58:04.810Z,7.80
2018-06-10T20:00:34.169Z,8.30
2018-06-10T20:03:05.194Z,8.20
2018-06-10T20:05:36.142Z,7.85
2018-06-10T20:08:04.998Z,8.70
2018-06-10T20:10:34.880Z,8.65
2018-06-10T20:13:04.693Z,8.80
2018-06-10T20:15:33.453Z,9.30
2018-06-10T20:18:02.773Z,9.40
2018-06-10T20:20:37.148Z,10.10
2018-06-10T20:23:11.690Z,10.72
2018-06-10T20:25:44.170Z,11.60
2018-06-10T20:28:15.966Z,11.63
2018-06-10T20:30:47.649Z,11.90
2018-06-10T20:33:18.734Z,13.53
2018-06-10T20:35:47.779Z,12.47
2018-06-10T20:38:15.991Z,13.58
2018-06-10T20:40:44.328Z,13.40
2018-06-10T20:43:13.129Z,14.00
2018-06-10T20:45:41.841Z,14.18
2018-06-10T20:48:10.245Z,14.23
2018-06-10T20:50:41.258Z,14.40
2018-06-10T20:53:09.703Z,14.23
2018-06-10T20:55:38.151Z,15.00
2018-06-10T20:58:15.052Z,15.40
2018-06-10T21:00:43.822Z,14.83
2018-06-10T21:03:13.500Z,15.00
2018-06-10T21:05:42.000Z,15.35
2018-06-10T21:08:10.635Z,15.80
2018-06-10T21:10:38.981Z,16.80
2018-06-10T21:13:08.009Z,17.30
2018-06-10T21:15:36.817Z,17.55
2018-06-10T21:18:05.425Z,18.10
2018-06-10T21:20:33.725Z,18.20
2018-06-10T21:23:02.227Z,17.52
2018-06-10T21:25:30.726Z,17.87
2018-06-10T21:27:59.184Z,19.35
2018-06-10T21:30:27.506Z,19.00
2018-06-10T21:32:55.588Z,19.85
2018-06-10T21:35:24.102Z,19.67
2018-06-10T21:37:53.216Z,20.40
2018-06-10T21:40:21.229Z,22.50
2018-06-10T21:42:49.533Z,22.77
2018-06-10T21:45:17.876Z,22.77
2018-06-10T21:47:46.423Z,24.32
2018-06-10T21:50:14.856Z,25.32
2018-06-10T21:52:43.236Z,25.02
2018-06-10T21:55:11.588Z,24.65
2018-06-10T21:57:39.818Z,24.90
2018-06-10T22:00:18.646Z,26.48
2018-06-10T22:02:46.755Z,25.35
2018-06-10T22:05:16.715Z,25.20
2018-06-10T22:07:44.948Z,26.57
2018-06-10T22:10:13.272Z,27.55
2018-06-10T22:12:41.751Z,26.55
2018-06-10T22:15:10.055Z,27.90
2018-06-10T22:17:38.032Z,27.40
2018-06-10T22:20:11.363Z,27.15
2018-06-10T22:22:39.732Z,27.00
2018-06-10T22:25:08.076Z,28.85
2018-06-10T22:27:36.436Z,28.60
2018-06-10T22:30:05.061Z,28.55
2018-06-10T22:32:32.951Z,29.00
2018-06-10T22:35:01.016Z,30.80
2018-06-10T22:37:29.118Z,29.50
2018-06-10T22:39:57.419Z,29.12
2018-06-10T22:42:25.941Z,29.50
2018-06-10T22:44:54.214Z,28.95
2018-06-10T22:47:22.503Z,31.17
2018-06-10T22:49:50.644Z,30.85
2018-06-10T22:52:19.753Z,30.17
2018-06-10T22:54:48.130Z,30.20
2018-06-10T22:57:16.565Z,30.88
2018-06-10T22:59:44.933Z,30.37
2018-06-10T23:02:14.471Z,29.90
2018-06-10T23:04:43.567Z,30.02
2018-06-10T23:07:11.841Z,31.33
2018-06-10T23:09:40.073Z,32.95
2018-06-10T23:12:08.447Z,31.30
2018-06-10T23:14:36.752Z,32.53
2018-06-10T23:17:05.157Z,32.23
2018-06-10T23:19:34.121Z,31.33
2018-06-10T23:22:02.494Z,31.83
2018-06-10T23:24:30.553Z,31.15
2018-06-10T23:26:58.653Z,32.08
2018-06-10T23:29:26.954Z,32.50
2018-06-10T23:31:54.957Z,31.60
2018-06-10T23:34:23.230Z,31.95
2018-06-10T23:36:51.557Z,32.70
2018-06-10T23:39:19.948Z,32.60
2018-06-10T23:41:48.366Z,32.05
2018-06-10T23:44:16.649Z,33.10
2018-06-10T23:46:45.032Z,32.35
2018-06-10T23:49:14.925Z,32.50
2018-06-10T23:51:44.209Z,33.78
2018-06-10T23:54:13.006Z,33.80
2018-06-10T23:56:41.348Z,32.90
2018-06-10T23:59:10.080Z,32.60
